Terminal Aerodrome Forecast
Issued by NWS Tampa Bay Area, FL

Home | Current Version | Previous Version | Text Only | Print | Product List | Glossary On
Versions: 1 2 3 4 5 6 7 8 9 10 11 12 13 14 15 16 17 18 19 20 21 22 23 24 25 26
000
FTUS42 KTBW 010200 AAA
TAFTPA
TAF AMD
KTPA 010255Z 0103/0124 06007KT P6SM VCSH SCT010 OVC050
     FM010800 05006KT 6SM BR SCT010 BKN060
     FM011400 09004KT P6SM SCT020 BKN070
     FM011700 17005KT P6SM VCSH SCT040 BKN250=

USA.gov is the U.S. government's official web portal to all federal, state and local government web resources and services.